Handytankers Miracle — V7OM4 — position and weather

sailwx.info

Track history (hours):
 
Tides and Currents Weather Stations Pressure Air Temp Water Temp Dewpoint Dewpoint Depression Visibility Wind Speed Wind Dir Waves Ship Positions

Handytankers Miracle

Last reported at 2015-Apr-19 10:25 UTC. Time now 2015-May-06 04:24 UTC.
Position N 21°48' E 113°15'.
Warning: this ship's position is 16 days out of date.

Length 183 m; draft 10.2 m.

Type: Tanker. MMSI: 538003114.

Date/timePositionNaut miles runAvg speedWind from/ knotsBaromVisibWave heightAir tempDewpointWater temp
2015-Apr-19 10:25N 21°48' E 113°15'6 6.9
2015-Apr-19 09:34N 21°54' E 113°14'  
2015-Apr-16 02:31N 21°54' E 113°14'0 0.0
2015-Apr-16 01:34N 21°54' E 113°14'1 1.2
2015-Apr-16 00:34N 21°53' E 113°13'5 5.5
2015-Apr-15 23:33N 21°47' E 113°15'10 8.6
2015-Apr-15 22:20N 21°39' E 113°22'28 7.2
2015-Apr-15 18:32N 21°41' E 113°51'33 9.8
2015-Apr-15 15:09N 21°58' E 114°22'10 6.1
2015-Apr-15 13:32N 22°08' E 114°19'9 8.8
2015-Apr-15 12:30N 22°08' E 114°09'2 0.2
2015-Apr-15 03:13N 22°10' E 114°09'0 0.0
2015-Apr-15 02:07N 22°10' E 114°09'1 1.5
2015-Apr-15 01:31N 22°09' E 114°10'7 0.6
2015-Apr-14 14:14N 22°09' E 114°17'811.1
2015-Apr-14 13:34N 22°08' E 114°26'29911.0
2015-Apr-13 10:27N 24°23' E 119°16'25311.5
2015-Apr-12 12:22N 27°24' E 122°34'1211.7
2015-Apr-12 11:21N 27°31' E 122°45'11811.6
2015-Apr-12 01:10N 28°57' E 124°16'712.1
2015-Apr-12 00:33N 29°03' E 124°22'5111.8
2015-Apr-11 20:10N 29°43' E 124°59'38011.6
2015-Apr-10 11:27N 35°01' E 129°05'1 0.1
2015-Apr-09 21:18N 35°02' E 129°03'0 0.1
2015-Apr-09 20:14N 35°02' E 129°03'0 0.0
2015-Apr-09 17:17N 35°02' E 129°03'  
Track history (hours):
 
Tides and Currents Weather Stations Pressure Air Temp Water Temp Dewpoint Dewpoint Depression Visibility Wind Speed Wind Dir Waves Ship Positions

Handytankers Miracle

Last reported at 2015-Apr-19 10:25 UTC. Time now 2015-May-06 04:24 UTC.
Position N 21°48' E 113°15'.
Warning: this ship's position is 16 days out of date.

Length 183 m; draft 10.2 m.

Type: Tanker. MMSI: 538003114.

Date/timePositionNaut miles runAvg speedWind from/ knotsBaromVisibWave heightAir tempDewpointWater temp
2015-Apr-19 10:25N 21°48' E 113°15'6 6.9
2015-Apr-19 09:34N 21°54' E 113°14'  
2015-Apr-16 02:31N 21°54' E 113°14'0 0.0
2015-Apr-16 01:34N 21°54' E 113°14'1 1.2
2015-Apr-16 00:34N 21°53' E 113°13'5 5.5
2015-Apr-15 23:33N 21°47' E 113°15'10 8.6
2015-Apr-15 22:20N 21°39' E 113°22'28 7.2
2015-Apr-15 18:32N 21°41' E 113°51'33 9.8
2015-Apr-15 15:09N 21°58' E 114°22'10 6.1
2015-Apr-15 13:32N 22°08' E 114°19'9 8.8
2015-Apr-15 12:30N 22°08' E 114°09'2 0.2
2015-Apr-15 03:13N 22°10' E 114°09'0 0.0
2015-Apr-15 02:07N 22°10' E 114°09'1 1.5
2015-Apr-15 01:31N 22°09' E 114°10'7 0.6
2015-Apr-14 14:14N 22°09' E 114°17'811.1
2015-Apr-14 13:34N 22°08' E 114°26'29911.0
2015-Apr-13 10:27N 24°23' E 119°16'25311.5
2015-Apr-12 12:22N 27°24' E 122°34'1211.7
2015-Apr-12 11:21N 27°31' E 122°45'11811.6
2015-Apr-12 01:10N 28°57' E 124°16'712.1
2015-Apr-12 00:33N 29°03' E 124°22'5111.8
2015-Apr-11 20:10N 29°43' E 124°59'38011.6
2015-Apr-10 11:27N 35°01' E 129°05'1 0.1
2015-Apr-09 21:18N 35°02' E 129°03'0 0.1
2015-Apr-09 20:14N 35°02' E 129°03'0 0.0
2015-Apr-09 17:17N 35°02' E 129°03'  

Dump ship's entire track history